Time;durP1;ratioP1;P1;durP2;ratioP2;P2;SDS_P1;SDS_P2;PMS_P1;PMS_P2;Temp;Humidity;BMP_temperature;BMP_pressure;BME280_temperature;BME280_humidity;BME280_pressure;Samples;Min_cycle;Max_cycle;Signal;HPM_P1;HPM_P2
2022/10/12 00:02:33;;;;;;;4.25;2.72;;;;;;;;;;10535086;28;20028;-61
2022/10/12 00:07:33;;;;;;;4.03;2.78;;;;;;;;;;10534428;28;20375;-61
2022/10/12 00:12:33;;;;;;;3.43;2.83;;;;;;;;;;10534146;28;20523;-48
2022/10/12 00:17:33;;;;;;;4.22;2.60;;;;;;;;;;10535044;28;20487;-59
2022/10/12 00:22:34;;;;;;;4.38;2.75;;;;;;;;;;10533818;28;20024;-61
2022/10/12 00:27:34;;;;;;;4.27;2.80;;;;;;;;;;10534017;28;20028;-60
2022/10/12 00:32:34;;;;;;;4.00;2.80;;;;;;;;;;10534030;28;20118;-57
2022/10/12 00:37:35;;;;;;;2.53;2.33;;;;;;;;;;10533338;28;20066;-58
2022/10/12 00:42:35;;;;;;;4.90;2.60;;;;;;;;;;10533179;28;20376;-57
2022/10/12 00:47:36;;;;;;;5.80;2.40;;;;;;;;;;10534281;28;20270;-48
2022/10/12 00:52:43;;;;;;;3.75;2.92;;;;;;;;;;10532828;28;20490;-60
2022/10/12 00:57:44;;;;;;;3.70;2.58;;;;;;;;;;10533722;28;20048;-59
2022/10/12 01:02:45;;;;;;;5.05;2.80;;;;;;;;;;10533814;28;20059;-57
2022/10/12 01:07:46;;;;;;;2.85;2.13;;;;;;;;;;10532737;28;20063;-60
2022/10/12 01:12:47;;;;;;;3.30;2.72;;;;;;;;;;10532456;28;20060;-57
2022/10/12 01:17:48;;;;;;;4.07;2.45;;;;;;;;;;10532370;28;20054;-61
2022/10/12 01:22:57;;;;;;;3.05;2.40;;;;;;;;;;10532370;28;20031;-59
2022/10/12 01:28:18;;;;;;;2.90;2.55;;;;;;;;;;10531909;28;20052;-57
2022/10/12 01:33:18;;;;;;;3.03;2.58;;;;;;;;;;10532206;28;20064;-60
2022/10/12 01:38:51;;;;;;;5.15;2.63;;;;;;;;;;10531968;28;20078;-58
2022/10/12 01:43:51;;;;;;;3.63;2.85;;;;;;;;;;10529855;28;20093;-58
2022/10/12 01:48:56;;;;;;;3.25;2.22;;;;;;;;;;10532348;28;20073;-57
2022/10/12 01:54:15;;;;;;;2.92;2.60;;;;;;;;;;10531828;28;20032;-59
2022/10/12 01:59:25;;;;;;;3.78;2.63;;;;;;;;;;10531718;28;20539;-60
2022/10/12 02:04:34;;;;;;;3.88;2.50;;;;;;;;;;10531501;28;20035;-56
2022/10/12 02:09:36;;;;;;;4.05;2.50;;;;;;;;;;10537987;28;20082;-61
2022/10/12 02:14:38;;;;;;;2.55;2.30;;;;;;;;;;10538920;28;20387;-61
2022/10/12 02:19:40;;;;;;;2.78;2.30;;;;;;;;;;10538658;28;20028;-56
2022/10/12 02:24:42;;;;;;;3.30;2.40;;;;;;;;;;10536968;28;20129;-61
2022/10/12 02:29:44;;;;;;;2.83;2.20;;;;;;;;;;10537420;28;20075;-60
2022/10/12 02:35:03;;;;;;;4.35;2.30;;;;;;;;;;10538461;28;20020;-60
2022/10/12 02:40:14;;;;;;;2.53;2.17;;;;;;;;;;10536856;28;20031;-60
2022/10/12 02:45:16;;;;;;;2.63;2.25;;;;;;;;;;10537573;28;20236;-61
2022/10/12 02:50:17;;;;;;;3.30;2.55;;;;;;;;;;10536618;28;20464;-60
2022/10/12 02:55:17;;;;;;;3.95;2.55;;;;;;;;;;10535971;28;20024;-59
2022/10/12 03:00:18;;;;;;;4.30;2.50;;;;;;;;;;10537058;28;20142;-59
2022/10/12 03:05:18;;;;;;;2.88;2.17;;;;;;;;;;10536875;28;20395;-58
2022/10/12 03:10:18;;;;;;;6.40;2.30;;;;;;;;;;10537006;28;20047;-58
2022/10/12 03:15:21;;;;;;;3.72;2.22;;;;;;;;;;10536328;28;20038;-61
2022/10/12 03:20:21;;;;;;;3.42;2.45;;;;;;;;;;10535845;28;20501;-61
2022/10/12 03:25:22;;;;;;;2.80;2.00;;;;;;;;;;10535861;28;20148;-61
2022/10/12 03:30:22;;;;;;;3.28;2.10;;;;;;;;;;10536122;28;20240;-60
2022/10/12 03:35:22;;;;;;;2.22;2.03;;;;;;;;;;10535497;28;20063;-61
2022/10/12 03:40:22;;;;;;;2.77;2.40;;;;;;;;;;10536081;28;20044;-59
2022/10/12 03:45:23;;;;;;;2.50;2.30;;;;;;;;;;10535083;28;20055;-58
2022/10/12 03:50:23;;;;;;;2.58;2.10;;;;;;;;;;10535627;28;20090;-60
2022/10/12 03:55:23;;;;;;;2.33;2.13;;;;;;;;;;10534821;28;20024;-61
2022/10/12 04:00:24;;;;;;;2.38;2.17;;;;;;;;;;10535403;28;20307;-59
2022/10/12 04:05:24;;;;;;;3.50;2.20;;;;;;;;;;10534468;28;20069;-60
2022/10/12 04:10:24;;;;;;;2.83;2.28;;;;;;;;;;10534878;28;20041;-58
2022/10/12 04:15:24;;;;;;;2.10;1.85;;;;;;;;;;10535168;28;20217;-60
2022/10/12 04:20:25;;;;;;;2.58;2.13;;;;;;;;;;10534640;28;20038;-59
2022/10/12 04:25:25;;;;;;;2.35;1.80;;;;;;;;;;10534357;28;20028;-58
2022/10/12 04:30:25;;;;;;;2.65;2.05;;;;;;;;;;10532921;28;20466;-61
2022/10/12 04:35:26;;;;;;;2.28;2.08;;;;;;;;;;10534155;28;20024;-60
2022/10/12 04:40:26;;;;;;;4.82;2.30;;;;;;;;;;10533422;28;20331;-57
2022/10/12 04:45:26;;;;;;;2.50;2.10;;;;;;;;;;10533316;28;20032;-61
2022/10/12 04:50:26;;;;;;;2.97;1.88;;;;;;;;;;10533929;28;20061;-59
2022/10/12 04:55:27;;;;;;;2.78;2.00;;;;;;;;;;10533063;28;20020;-60
2022/10/12 05:00:27;;;;;;;2.97;1.65;;;;;;;;;;10533652;28;20028;-60
2022/10/12 05:05:27;;;;;;;2.37;2.10;;;;;;;;;;10531924;28;20034;-61
2022/10/12 05:10:28;;;;;;;2.20;1.92;;;;;;;;;;10532821;28;20028;-61
2022/10/12 05:15:28;;;;;;;2.22;1.85;;;;;;;;;;10532816;28;20165;-61
2022/10/12 05:20:28;;;;;;;3.28;2.15;;;;;;;;;;10533059;28;20028;-58
2022/10/12 05:25:29;;;;;;;3.22;2.13;;;;;;;;;;10532397;28;20554;-45
2022/10/12 05:30:29;;;;;;;4.13;2.93;;;;;;;;;;10531609;28;20083;-46
2022/10/12 05:35:29;;;;;;;6.80;3.70;;;;;;;;;;10532521;28;20044;-46
2022/10/12 05:40:30;;;;;;;10.60;3.80;;;;;;;;;;10533608;28;20471;-62
2022/10/12 05:45:30;;;;;;;8.02;3.40;;;;;;;;;;10538823;28;20028;-45
2022/10/12 05:50:30;;;;;;;19.58;4.47;;;;;;;;;;10540377;28;20034;-45
2022/10/12 05:55:30;;;;;;;12.47;4.10;;;;;;;;;;10539938;28;20429;-49
2022/10/12 06:00:31;;;;;;;13.43;3.30;;;;;;;;;;10537929;28;20081;-48
2022/10/12 06:05:31;;;;;;;8.45;3.20;;;;;;;;;;10538986;28;20024;-51
2022/10/12 06:10:31;;;;;;;5.00;2.92;;;;;;;;;;10539045;28;20024;-48
2022/10/12 06:15:32;;;;;;;9.55;3.38;;;;;;;;;;10538442;28;20159;-50
2022/10/12 06:20:32;;;;;;;7.90;3.50;;;;;;;;;;10538543;28;20036;-46
2022/10/12 06:25:32;;;;;;;11.68;3.38;;;;;;;;;;10537993;28;20066;-45
2022/10/12 06:30:33;;;;;;;10.38;3.65;;;;;;;;;;10538244;28;20056;-52
2022/10/12 06:35:33;;;;;;;7.88;3.10;;;;;;;;;;10539175;28;20028;-47
2022/10/12 06:40:33;;;;;;;8.77;3.10;;;;;;;;;;10538285;28;20103;-57
2022/10/12 06:45:34;;;;;;;8.90;2.90;;;;;;;;;;10538217;28;20031;-52
2022/10/12 06:50:34;;;;;;;7.47;3.38;;;;;;;;;;10537198;28;20020;-47
2022/10/12 06:55:37;;;;;;;9.13;3.72;;;;;;;;;;10536612;28;20024;-49
2022/10/12 07:00:38;;;;;;;6.43;3.85;;;;;;;;;;10536571;28;20115;-48
2022/10/12 07:05:38;;;;;;;7.65;2.90;;;;;;;;;;10536100;28;20115;-46
2022/10/12 07:10:38;;;;;;;7.80;2.97;;;;;;;;;;10536650;28;20031;-46
2022/10/12 07:15:39;;;;;;;6.88;3.05;;;;;;;;;;10536148;28;20453;-47
2022/10/12 07:20:39;;;;;;;5.23;2.80;;;;;;;;;;10532544;28;20489;-48
2022/10/12 07:25:39;;;;;;;6.57;3.10;;;;;;;;;;10534238;28;20502;-46
2022/10/12 07:30:39;;;;;;;4.72;2.67;;;;;;;;;;10534343;28;20510;-48
2022/10/12 07:35:40;;;;;;;5.28;2.85;;;;;;;;;;10533139;28;20363;-46
2022/10/12 07:40:40;;;;;;;8.98;3.10;;;;;;;;;;10531550;28;20032;-57
2022/10/12 07:45:41;;;;;;;3.63;2.50;;;;;;;;;;10533592;28;20104;-50
2022/10/12 07:50:41;;;;;;;4.00;2.83;;;;;;;;;;10534847;28;20032;-46
2022/10/12 07:55:41;;;;;;;4.45;2.88;;;;;;;;;;10534910;28;20047;-50
2022/10/12 08:00:41;;;;;;;3.50;2.73;;;;;;;;;;10535156;28;20032;-51
2022/10/12 08:05:42;;;;;;;8.07;2.80;;;;;;;;;;10534339;28;20153;-48
2022/10/12 08:10:42;;;;;;;4.70;2.83;;;;;;;;;;10534355;28;20024;-48
2022/10/12 08:15:47;;;;;;;4.88;2.85;;;;;;;;;;10534974;28;20030;-48
2022/10/12 08:20:47;;;;;;;4.68;2.42;;;;;;;;;;10534600;28;20036;-57
2022/10/12 08:25:55;;;;;;;6.47;2.70;;;;;;;;;;10534054;28;20058;-51
2022/10/12 08:30:55;;;;;;;6.70;2.80;;;;;;;;;;10534113;28;20386;-51
2022/10/12 08:35:55;;;;;;;4.10;2.80;;;;;;;;;;10534216;28;20338;-46
2022/10/12 08:41:03;;;;;;;7.95;2.80;;;;;;;;;;10533531;28;20396;-52
2022/10/12 08:46:04;;;;;;;7.47;3.08;;;;;;;;;;10534238;28;20058;-50
2022/10/12 08:51:07;;;;;;;7.18;2.80;;;;;;;;;;10533031;28;20111;-46
2022/10/12 08:56:08;;;;;;;5.03;2.88;;;;;;;;;;10534317;28;20027;-47
2022/10/12 09:01:20;;;;;;;4.80;2.92;;;;;;;;;;10533196;28;20502;-57
2022/10/12 09:06:25;;;;;;;6.10;2.80;;;;;;;;;;10533770;28;20028;-58
2022/10/12 09:11:37;;;;;;;6.93;2.80;;;;;;;;;;10532994;28;20101;-56
2022/10/12 09:16:42;;;;;;;4.15;2.88;;;;;;;;;;10538115;28;20126;-53
2022/10/12 09:21:44;;;;;;;3.35;2.28;;;;;;;;;;10541420;28;20082;-58
2022/10/12 09:26:47;;;;;;;7.40;3.03;;;;;;;;;;10541242;28;20050;-58
2022/10/12 09:32:08;;;;;;;3.55;2.63;;;;;;;;;;10540926;28;20044;-57
2022/10/12 09:37:13;;;;;;;4.13;2.67;;;;;;;;;;10540838;28;20434;-58
2022/10/12 09:42:14;;;;;;;3.80;2.33;;;;;;;;;;10540612;28;20027;-57
2022/10/12 09:47:22;;;;;;;3.50;2.50;;;;;;;;;;10540886;28;20035;-58
2022/10/12 09:52:25;;;;;;;6.32;2.70;;;;;;;;;;10540467;28;20115;-48
2022/10/12 09:57:28;;;;;;;5.15;2.95;;;;;;;;;;10540622;28;20080;-50
2022/10/12 10:02:28;;;;;;;4.53;2.60;;;;;;;;;;10540792;28;20111;-47
2022/10/12 10:07:32;;;;;;;4.07;2.83;;;;;;;;;;10540127;28;20479;-50
2022/10/12 10:12:34;;;;;;;7.70;2.92;;;;;;;;;;10539307;28;20118;-56
2022/10/12 10:17:34;;;;;;;4.97;2.65;;;;;;;;;;10539223;28;20032;-46
2022/10/12 10:22:35;;;;;;;3.10;2.40;;;;;;;;;;10537693;28;20032;-47
2022/10/12 10:27:36;;;;;;;4.88;2.83;;;;;;;;;;10536073;28;20047;-46
2022/10/12 10:32:37;;;;;;;6.40;2.83;;;;;;;;;;10537718;28;20073;-47
2022/10/12 10:37:41;;;;;;;5.78;3.03;;;;;;;;;;10538339;28;20036;-47
2022/10/12 10:42:42;;;;;;;3.80;2.33;;;;;;;;;;10537403;28;20029;-47
2022/10/12 10:47:45;;;;;;;6.97;3.40;;;;;;;;;;10537669;28;20490;-48
2022/10/12 10:52:52;;;;;;;4.85;3.05;;;;;;;;;;10538234;28;20085;-46
2022/10/12 10:58:04;;;;;;;3.38;2.58;;;;;;;;;;10537130;28;20020;-46
2022/10/12 11:03:17;;;;;;;6.60;3.10;;;;;;;;;;10537193;28;20036;-45
2022/10/12 11:08:25;;;;;;;4.18;2.80;;;;;;;;;;10536487;28;20337;-50
2022/10/12 11:13:28;;;;;;;7.03;3.30;;;;;;;;;;10534348;28;20067;-47
2022/10/12 11:18:37;;;;;;;2.60;2.33;;;;;;;;;;10535607;28;20113;-49
2022/10/12 11:23:40;;;;;;;5.80;2.88;;;;;;;;;;10536259;28;20360;-48
2022/10/12 11:28:41;;;;;;;4.03;2.65;;;;;;;;;;10534975;28;20403;-50
2022/10/12 11:33:42;;;;;;;5.95;3.17;;;;;;;;;;10535136;28;20042;-50
2022/10/12 11:38:48;;;;;;;5.85;2.90;;;;;;;;;;10534840;28;20084;-58
2022/10/12 11:43:57;;;;;;;5.43;2.90;;;;;;;;;;10535061;28;20028;-48
2022/10/12 11:49:04;;;;;;;9.77;2.53;;;;;;;;;;10534598;28;20024;-49
2022/10/12 11:54:18;;;;;;;3.90;2.72;;;;;;;;;;10529913;28;20047;-52
2022/10/12 11:59:22;;;;;;;9.43;3.00;;;;;;;;;;10532455;28;20039;-48
2022/10/12 12:04:41;;;;;;;6.95;2.70;;;;;;;;;;10533977;28;20046;-47
2022/10/12 12:09:42;;;;;;;5.43;2.92;;;;;;;;;;10533778;28;20499;-52
2022/10/12 12:14:46;;;;;;;4.90;2.53;;;;;;;;;;10533876;28;20381;-54
2022/10/12 12:19:48;;;;;;;3.92;2.45;;;;;;;;;;10534252;28;20024;-50
2022/10/12 12:25:09;;;;;;;5.53;2.97;;;;;;;;;;10533385;28;20511;-47
2022/10/12 12:30:18;;;;;;;5.95;2.85;;;;;;;;;;10533432;28;20036;-49
2022/10/12 12:35:23;;;;;;;6.40;2.78;;;;;;;;;;10533157;28;20084;-50
2022/10/12 12:40:23;;;;;;;7.07;2.70;;;;;;;;;;10532716;28;20028;-50
2022/10/12 12:45:44;;;;;;;6.75;3.25;;;;;;;;;;10532185;28;20028;-50
2022/10/12 12:50:46;;;;;;;8.80;3.20;;;;;;;;;;10531020;28;20072;-50
2022/10/12 12:56:02;;;;;;;13.35;3.75;;;;;;;;;;10533214;28;20024;-50
2022/10/12 13:01:02;;;;;;;9.60;4.18;;;;;;;;;;10532833;28;20380;-48
2022/10/12 13:06:12;;;;;;;10.35;3.40;;;;;;;;;;10532318;28;20024;-49
2022/10/12 13:11:30;;;;;;;9.98;3.67;;;;;;;;;;10532085;28;20420;-47
2022/10/12 13:16:52;;;;;;;6.85;3.50;;;;;;;;;;10531279;28;20024;-46
2022/10/12 13:21:54;;;;;;;12.30;4.18;;;;;;;;;;10531952;28;20467;-52
2022/10/12 13:26:57;;;;;;;12.23;3.50;;;;;;;;;;10532402;28;20028;-49
2022/10/12 13:31:58;;;;;;;9.50;4.32;;;;;;;;;;10530612;28;20059;-49
2022/10/12 13:37:00;;;;;;;13.32;3.78;;;;;;;;;;10531909;28;20071;-55
2022/10/12 13:42:00;;;;;;;16.50;3.78;;;;;;;;;;10532171;28;20081;-59
2022/10/12 13:47:02;;;;;;;12.87;4.23;;;;;;;;;;10530622;28;20472;-48
2022/10/12 13:52:11;;;;;;;14.77;4.03;;;;;;;;;;10529198;28;20024;-46
2022/10/12 13:57:21;;;;;;;15.52;4.45;;;;;;;;;;10529818;28;20020;-47
2022/10/12 14:02:22;;;;;;;9.32;3.85;;;;;;;;;;10534679;28;20420;-50
2022/10/12 14:07:25;;;;;;;12.23;4.00;;;;;;;;;;10539680;28;20122;-58
2022/10/12 14:12:28;;;;;;;13.43;3.55;;;;;;;;;;10539306;28;20115;-62
2022/10/12 14:17:29;;;;;;;8.65;3.67;;;;;;;;;;10539441;28;20032;-61
2022/10/12 14:22:30;;;;;;;8.68;3.35;;;;;;;;;;10538383;28;20070;-60
2022/10/12 14:27:31;;;;;;;15.68;3.97;;;;;;;;;;10538116;28;20205;-61
2022/10/12 14:32:36;;;;;;;8.35;3.05;;;;;;;;;;10537965;28;20071;-57
2022/10/12 14:37:37;;;;;;;7.45;3.30;;;;;;;;;;10538663;28;20032;-60
2022/10/12 14:42:37;;;;;;;8.27;3.55;;;;;;;;;;10537820;28;20024;-60
2022/10/12 14:47:37;;;;;;;16.10;4.10;;;;;;;;;;10537615;28;20031;-60
2022/10/12 14:52:42;;;;;;;6.68;3.05;;;;;;;;;;10537111;28;20088;-54
2022/10/12 14:57:42;;;;;;;10.02;3.10;;;;;;;;;;10537305;28;20451;-55
2022/10/12 15:02:43;;;;;;;9.27;3.13;;;;;;;;;;10536989;28;20035;-60
2022/10/12 15:07:45;;;;;;;8.90;3.38;;;;;;;;;;10536810;28;20028;-47
2022/10/12 15:12:45;;;;;;;60.78;6.32;;;;;;;;;;10535744;28;20521;-45
2022/10/12 15:17:46;;;;;;;29.70;3.67;;;;;;;;;;10536756;28;20028;-45
2022/10/12 15:22:46;;;;;;;46.67;4.22;;;;;;;;;;10534771;28;20441;-46
2022/10/12 15:27:46;;;;;;;23.65;4.13;;;;;;;;;;10535787;28;20064;-47
2022/10/12 15:32:47;;;;;;;15.07;3.20;;;;;;;;;;10535604;28;20032;-45
2022/10/12 15:37:47;;;;;;;10.30;3.60;;;;;;;;;;10535463;28;20024;-45
2022/10/12 15:42:48;;;;;;;14.65;3.00;;;;;;;;;;10534730;28;20024;-47
2022/10/12 15:47:49;;;;;;;14.40;4.30;;;;;;;;;;10535259;28;20099;-45
2022/10/12 15:52:49;;;;;;;11.73;3.47;;;;;;;;;;10534828;28;20983;-46
2022/10/12 15:57:50;;;;;;;11.53;3.43;;;;;;;;;;10535368;28;20028;-46
2022/10/12 16:02:51;;;;;;;7.80;3.22;;;;;;;;;;10535107;28;20028;-46
2022/10/12 16:07:52;;;;;;;11.85;3.80;;;;;;;;;;10534604;28;20424;-47
2022/10/12 16:12:52;;;;;;;8.57;3.37;;;;;;;;;;10533630;28;20028;-47
2022/10/12 16:17:53;;;;;;;9.65;3.05;;;;;;;;;;10533808;28;20028;-47
2022/10/12 16:22:54;;;;;;;9.85;3.22;;;;;;;;;;10534257;28;20037;-46
2022/10/12 16:27:55;;;;;;;6.78;3.00;;;;;;;;;;10532459;28;20028;-46
2022/10/12 16:32:56;;;;;;;14.73;3.33;;;;;;;;;;10532124;28;20502;-46
2022/10/12 16:37:56;;;;;;;6.23;2.67;;;;;;;;;;10528789;28;20024;-50
2022/10/12 16:42:56;;;;;;;7.60;2.95;;;;;;;;;;10530831;28;20387;-47
2022/10/12 16:47:57;;;;;;;6.22;2.35;;;;;;;;;;10531407;28;20081;-47
2022/10/12 16:52:57;;;;;;;10.13;3.13;;;;;;;;;;10532736;28;20399;-46
2022/10/12 16:57:57;;;;;;;8.80;3.60;;;;;;;;;;10532345;28;20511;-50
2022/10/12 17:02:58;;;;;;;10.65;3.35;;;;;;;;;;10532311;28;20065;-45
2022/10/12 17:07:58;;;;;;;7.03;2.75;;;;;;;;;;10531178;28;20028;-47
2022/10/12 17:12:58;;;;;;;4.80;3.00;;;;;;;;;;10533029;28;20039;-46
2022/10/12 17:17:59;;;;;;;7.50;3.00;;;;;;;;;;10531921;28;20065;-45
2022/10/12 17:22:59;;;;;;;9.80;2.70;;;;;;;;;;10533025;28;20035;-47
2022/10/12 17:27:59;;;;;;;8.18;2.70;;;;;;;;;;10532324;28;20038;-44
2022/10/12 17:32:59;;;;;;;5.57;2.55;;;;;;;;;;10532026;28;20085;-48
2022/10/12 17:38:00;;;;;;;7.18;2.60;;;;;;;;;;10537247;28;20028;-46
2022/10/12 17:43:00;;;;;;;6.75;2.45;;;;;;;;;;10540515;28;20058;-45
2022/10/12 17:48:00;;;;;;;6.85;2.90;;;;;;;;;;10539352;28;20016;-45
2022/10/12 17:53:00;;;;;;;6.85;2.65;;;;;;;;;;10537688;28;20116;-47
2022/10/12 17:58:01;;;;;;;6.35;2.60;;;;;;;;;;10537889;28;20093;-45
2022/10/12 18:03:01;;;;;;;3.17;2.40;;;;;;;;;;10538524;28;20028;-51
2022/10/12 18:08:01;;;;;;;6.67;2.73;;;;;;;;;;10536985;28;20028;-47
2022/10/12 18:13:01;;;;;;;7.45;2.88;;;;;;;;;;10537053;28;20032;-49
2022/10/12 18:18:02;;;;;;;6.28;2.78;;;;;;;;;;10538716;28;20383;-48
2022/10/12 18:23:02;;;;;;;7.15;2.80;;;;;;;;;;10538433;28;20058;-48
2022/10/12 18:28:02;;;;;;;6.70;3.00;;;;;;;;;;10537706;28;20031;-46
2022/10/12 18:33:03;;;;;;;10.93;2.95;;;;;;;;;;10537544;28;20023;-49
2022/10/12 18:38:03;;;;;;;9.57;2.93;;;;;;;;;;10537659;28;20024;-45
2022/10/12 18:43:03;;;;;;;8.05;3.28;;;;;;;;;;10537253;28;20027;-46
2022/10/12 18:48:05;;;;;;;10.23;3.07;;;;;;;;;;10536388;28;20028;-48
2022/10/12 18:53:06;;;;;;;5.15;2.88;;;;;;;;;;10537583;28;20469;-45
2022/10/12 18:58:06;;;;;;;8.07;3.38;;;;;;;;;;10537056;28;20039;-45
2022/10/12 19:03:07;;;;;;;14.30;3.40;;;;;;;;;;10536292;28;20058;-47
2022/10/12 19:08:07;;;;;;;7.93;3.08;;;;;;;;;;10537276;28;20032;-47
2022/10/12 19:13:07;;;;;;;7.63;3.40;;;;;;;;;;10536290;28;20051;-49
2022/10/12 19:18:08;;;;;;;7.50;3.80;;;;;;;;;;10533897;28;20028;-47
2022/10/12 19:23:08;;;;;;;5.53;2.70;;;;;;;;;;10536518;28;20032;-48
2022/10/12 19:28:08;;;;;;;6.32;2.70;;;;;;;;;;10535032;28;20043;-45
2022/10/12 19:33:08;;;;;;;8.00;3.67;;;;;;;;;;10533528;28;20027;-47
2022/10/12 19:38:09;;;;;;;9.35;3.28;;;;;;;;;;10535587;28;20027;-46
2022/10/12 19:43:09;;;;;;;9.98;2.80;;;;;;;;;;10534473;28;20024;-46
2022/10/12 19:48:10;;;;;;;7.27;3.70;;;;;;;;;;10534614;28;20016;-47
2022/10/12 19:53:10;;;;;;;11.25;3.25;;;;;;;;;;10534483;28;20119;-45
2022/10/12 19:58:10;;;;;;;13.80;3.23;;;;;;;;;;10533456;28;20032;-45
2022/10/12 20:03:11;;;;;;;9.52;3.58;;;;;;;;;;10534451;28;20028;-46
2022/10/12 20:08:11;;;;;;;18.48;3.42;;;;;;;;;;10534637;28;20093;-44
2022/10/12 20:13:11;;;;;;;6.85;3.50;;;;;;;;;;10533327;28;20363;-44
2022/10/12 20:18:12;;;;;;;9.83;5.80;;;;;;;;;;10533327;28;20036;-47
2022/10/12 20:23:12;;;;;;;14.93;7.63;;;;;;;;;;10533979;28;20051;-46
2022/10/12 20:28:13;;;;;;;18.70;6.55;;;;;;;;;;10532790;28;20048;-45
2022/10/12 20:33:13;;;;;;;11.68;5.15;;;;;;;;;;10533398;28;20399;-46
2022/10/12 20:38:14;;;;;;;18.20;5.88;;;;;;;;;;10533652;28;20024;-48
2022/10/12 20:43:15;;;;;;;21.88;5.55;;;;;;;;;;10533321;28;20379;-46
2022/10/12 20:48:15;;;;;;;10.37;4.90;;;;;;;;;;10533011;28;20111;-46
2022/10/12 20:53:15;;;;;;;9.18;4.32;;;;;;;;;;10532341;28;20059;-47
2022/10/12 20:58:16;;;;;;;9.35;4.57;;;;;;;;;;10533355;28;20031;-46
2022/10/12 21:03:16;;;;;;;9.70;4.43;;;;;;;;;;10533085;28;20104;-47
2022/10/12 21:08:16;;;;;;;25.40;4.85;;;;;;;;;;10531585;28;20031;-44
2022/10/12 21:13:16;;;;;;;13.88;4.20;;;;;;;;;;10538068;28;20028;-45
2022/10/12 21:18:17;;;;;;;7.78;3.88;;;;;;;;;;10541502;28;20073;-45
2022/10/12 21:23:17;;;;;;;22.45;4.95;;;;;;;;;;10541196;28;20020;-45
2022/10/12 21:28:17;;;;;;;13.10;4.15;;;;;;;;;;10541086;28;20066;-49
2022/10/12 21:33:18;;;;;;;9.15;4.18;;;;;;;;;;10541159;28;20391;-46
2022/10/12 21:38:18;;;;;;;21.88;4.00;;;;;;;;;;10541328;28;20059;-47
2022/10/12 21:43:18;;;;;;;13.40;4.25;;;;;;;;;;10539773;28;20085;-47
2022/10/12 21:48:19;;;;;;;6.78;3.78;;;;;;;;;;10538135;28;20020;-45
2022/10/12 21:53:20;;;;;;;7.22;3.72;;;;;;;;;;10539251;28;20031;-58
2022/10/12 21:58:20;;;;;;;11.65;4.20;;;;;;;;;;10538706;28;20677;-48
2022/10/12 22:03:20;;;;;;;7.50;3.80;;;;;;;;;;10538858;28;20270;-48
2022/10/12 22:08:21;;;;;;;15.30;4.00;;;;;;;;;;10538417;28;20028;-47
2022/10/12 22:13:21;;;;;;;7.68;3.53;;;;;;;;;;10537691;28;20038;-48
2022/10/12 22:18:21;;;;;;;9.23;3.60;;;;;;;;;;10537695;28;20377;-45
2022/10/12 22:23:22;;;;;;;8.90;3.88;;;;;;;;;;10535689;28;20032;-47
2022/10/12 22:28:22;;;;;;;8.93;3.43;;;;;;;;;;10536890;28;20054;-48
2022/10/12 22:33:23;;;;;;;7.78;3.95;;;;;;;;;;10536235;28;20471;-45
2022/10/12 22:38:23;;;;;;;13.05;4.07;;;;;;;;;;10537791;28;20024;-45
2022/10/12 22:43:25;;;;;;;15.80;3.78;;;;;;;;;;10537729;28;20027;-45
2022/10/12 22:48:25;;;;;;;10.10;3.60;;;;;;;;;;10537427;28;20365;-45
2022/10/12 22:53:25;;;;;;;4.60;3.10;;;;;;;;;;10536348;28;20020;-45
2022/10/12 22:58:26;;;;;;;9.88;3.20;;;;;;;;;;10537331;28;20077;-46
2022/10/12 23:03:28;;;;;;;5.80;3.42;;;;;;;;;;10537454;28;20028;-45
2022/10/12 23:08:28;;;;;;;4.05;3.13;;;;;;;;;;10536332;28;20027;-45
2022/10/12 23:13:29;;;;;;;5.75;3.30;;;;;;;;;;10535454;28;20024;-46
2022/10/12 23:18:29;;;;;;;5.70;3.22;;;;;;;;;;10535927;28;20051;-45
2022/10/12 23:23:30;;;;;;;7.07;3.00;;;;;;;;;;10536047;28;20028;-46
2022/10/12 23:28:30;;;;;;;9.47;3.10;;;;;;;;;;10536118;28;20044;-45
2022/10/12 23:33:31;;;;;;;6.47;2.97;;;;;;;;;;10535016;28;20484;-46
2022/10/12 23:38:32;;;;;;;8.25;3.35;;;;;;;;;;10536308;28;20445;-46
2022/10/12 23:43:33;;;;;;;7.80;3.05;;;;;;;;;;10536076;28;20523;-46
2022/10/12 23:48:33;;;;;;;9.23;3.15;;;;;;;;;;10533985;28;20118;-45
2022/10/12 23:53:34;;;;;;;6.10;3.45;;;;;;;;;;10535733;28;20028;-46
2022/10/12 23:58:34;;;;;;;3.95;3.10;;;;;;;;;;10535354;28;20028;-45
